LFLLPAAK

Guest
Details From LFLL - Lyon Saint Exupery
To PAAK - Atka
Flight Number -
Tags Generated
Created
Modified
Stats Distance 4,927 nm / 9,125 km
Max Altitude 0 ft / 0 m
Waypoints 7
Social Downloads 1
Likes 0
Share VATSIM

Download

Looking for another format? Having issues loading an existing format? Contact us
Advertisement - Login to hide

Notes

Generated

Route

LFLL MMD MC3 NORSO VOO ZIKEF PAAK

ID Type Via Altitude Latitude Longitude Leg Dist Tot Dist Heading (true) Name
O LFLL APT - 0 ft / 0 m 45.73499˚ 5.09188˚ - 0 nm - Lyon Saint Exupery
MMD VOR - 0 ft / 0 m 49.39125˚ 5.12442˚ 219 nm 219 nm 0° / 0° MONTMEDY-Dun sur Meuse VOR
MC3 FIX - 0 ft / 0 m 52.99925˚ 5.19867˚ 216 nm 436 nm 1° / 1° -
NORSO FIX - 0 ft / 0 m 57.00000˚ 5.17500˚ 240 nm 676 nm 360° / 360° -
VOO VOR - 0 ft / 0 m 60.54893˚ 5.12879˚ 213 nm 889 nm 360° / 360° VOLLO VOR-DME
ZIKEF FIX - 0 ft / 0 m 52.23535˚ -174.21140˚ 4036 nm 4926 nm 360° / 180° -
O PAAK APT - 0 ft / 0 m 52.22476˚ -174.20783˚ 0 nm 4927 nm 168° / 168° Atka

Altitude Profile

Advertisement - Login to hide

Weather


0- 5 10 15 20 25 30 35+ Temperature / ° C

Clouds and Precipitation
Forecast for 2018-05-21 06:00 UTC. Updated 2 hours ago

Ground ~20,000 ft ~40,000 ft Winds

LFLL

Details ICAO LFLL (LYS)
Name Lyon Saint Exupery
Region France
Timezone Europe/Paris (UTC+2.0)
Stats Elevation 820 ft / 250 m (AMSL)
Location 45.725812° 5.090748°
Runways 2
Magnetic Variation 1.540° E

METAR

LFLL 210730Z 19004KT 160V220 CAVOK 18/11 Q1014 NOSIG

Decode

TAF

TAF LFLL 210500Z 2106/2212 18005KT CAVOK BECMG 2109/2112 FEW050TCU PROB40 TEMPO 2115/2122 VRB15KT SHRA FEW045CB SCT050TCU PROB30 TEMPO 2116/2121 VRB15G25KT TSRA SCT045CB BKN050TCU BECMG 2122/2124 CAVOK BECMG 2210/2212 35005KT FEW050TCU

Decode

Departure Runways

ID Width Length Bearing (true) Bearing (mag) Surface Threshold Offset Overrun Length
18L 148 ft / 45 m 8,798 ft / 2,682 m 175.13° 173.59° Asphalt 33 ft / 10 m 52 ft / 16 m
18R 148 ft / 45 m 13,149 ft / 4,008 m 175.14° 173.60° Asphalt 16 ft / 5 m 203 ft / 62 m
36L 148 ft / 45 m 13,149 ft / 4,008 m 355.15° 353.61° Asphalt 36 ft / 11 m 151 ft / 46 m
36R 148 ft / 45 m 8,798 ft / 2,682 m 355.13° 353.59° Asphalt 26 ft / 8 m 52 ft / 16 m

PAAK

Details ICAO PAAK (AKB)
Name Atka
Region USA (Alaska)
Timezone America/Adak (UTC-9.0)
Stats Elevation 56 ft / 17 m (AMSL)
Location 52.220349° -174.206350°
Runways 1
Magnetic Variation 5.743° E

METAR

PAAK 210656Z AUTO 28018G21KT 7SM CLR 05/03 A3003 RMK AO2 SLP171 T00500028 PNO $

Decode

TAF

Not found

Destination Runways

ID Width Length Bearing (true) Bearing (mag) Surface Threshold Offset Overrun Length
15 85 ft / 26 m 3,286 ft / 1,002 m 168.36° 162.62° Asphalt 0 ft / 0 m 0 ft / 0 m
33 85 ft / 26 m 3,286 ft / 1,002 m 348.36° 342.62° Asphalt 0 ft / 0 m 0 ft / 0 m